Time;durP1;ratioP1;P1;durP2;ratioP2;P2;SDS_P1;SDS_P2;PMS_P1;PMS_P2;Temp;Humidity;BMP_temperature;BMP_pressure;BME280_temperature;BME280_humidity;BME280_pressure;Samples;Min_cycle;Max_cycle;Signal;HPM_P1;HPM_P2
2021/07/10 00:02:02;;;;;;;12.60;10.48;;;14.60;99.90;;;;;;5051792;28;20041;-64
2021/07/10 00:04:28;;;;;;;11.68;10.40;;;14.50;99.90;;;;;;5050445;28;20029;-65
2021/07/10 00:06:54;;;;;;;12.48;10.38;;;14.50;99.90;;;;;;5050898;28;20033;-64
2021/07/10 00:09:20;;;;;;;13.45;10.57;;;14.40;99.90;;;;;;5050124;28;20110;-64
2021/07/10 00:11:47;;;;;;;12.75;10.70;;;14.40;99.90;;;;;;5051025;28;20068;-64
2021/07/10 00:14:12;;;;;;;14.82;11.65;;;14.30;99.90;;;;;;5050327;28;20033;-65
2021/07/10 00:16:38;;;;;;;15.15;12.50;;;14.30;99.90;;;;;;5050271;28;20040;-64
2021/07/10 00:19:04;;;;;;;12.68;10.68;;;14.30;99.90;;;;;;5050882;28;20118;-64
2021/07/10 00:21:29;;;;;;;12.35;10.38;;;14.20;99.90;;;;;;5049912;28;20401;-64
2021/07/10 00:23:55;;;;;;;12.45;11.18;;;14.20;99.90;;;;;;5050691;28;20032;-64
2021/07/10 00:26:21;;;;;;;14.45;11.23;;;14.10;99.90;;;;;;5050080;28;20053;-66
2021/07/10 00:28:46;;;;;;;12.05;10.63;;;14.10;99.90;;;;;;5049552;28;20044;-63
2021/07/10 00:31:12;;;;;;;12.95;10.52;;;14.00;99.90;;;;;;5049826;28;20095;-63
2021/07/10 00:33:38;;;;;;;13.60;12.15;;;14.00;99.90;;;;;;5050646;28;20020;-63
2021/07/10 00:36:04;;;;;;;12.63;10.93;;;14.00;99.90;;;;;;5050386;28;20461;-63
2021/07/10 00:38:29;;;;;;;15.43;11.07;;;13.90;99.90;;;;;;5049675;28;20037;-63
2021/07/10 00:40:55;;;;;;;14.25;10.50;;;14.00;99.90;;;;;;5050691;28;20037;-63
2021/07/10 00:43:21;;;;;;;14.85;11.98;;;13.90;99.90;;;;;;5050034;28;20113;-64
2021/07/10 00:45:47;;;;;;;12.95;11.45;;;13.90;99.90;;;;;;5050677;28;20025;-64
2021/07/10 00:48:13;;;;;;;12.13;10.63;;;13.90;99.90;;;;;;5049752;28;20044;-64
2021/07/10 00:50:39;;;;;;;12.65;10.65;;;13.90;99.90;;;;;;5050614;28;20094;-63
2021/07/10 00:53:06;;;;;;;12.68;10.05;;;13.90;99.90;;;;;;5050307;28;20401;-63
2021/07/10 00:55:32;;;;;;;12.32;9.77;;;13.90;99.90;;;;;;5051654;28;20041;-64
2021/07/10 00:57:59;;;;;;;10.95;9.25;;;13.90;99.90;;;;;;5054551;28;20021;-63
2021/07/10 01:00:25;;;;;;;10.77;9.55;;;13.80;99.90;;;;;;5052291;28;20033;-63
2021/07/10 01:02:52;;;;;;;10.27;9.18;;;13.80;99.90;;;;;;5054084;28;20025;-65
2021/07/10 01:05:21;;;;;;;11.40;9.82;;;13.80;99.90;;;;;;5052824;28;20033;-65
2021/07/10 01:07:47;;;;;;;10.60;9.50;;;13.70;99.90;;;;;;5045942;28;20041;-65
2021/07/10 01:10:15;;;;;;;13.48;10.40;;;13.70;99.90;;;;;;5053376;28;20033;-65
2021/07/10 01:12:43;;;;;;;12.05;10.35;;;13.60;99.90;;;;;;5053851;28;20032;-65
2021/07/10 01:15:11;;;;;;;11.85;10.32;;;13.60;99.90;;;;;;5053244;28;20382;-66
2021/07/10 01:17:37;;;;;;;11.65;10.15;;;13.60;99.90;;;;;;5053662;28;20055;-64
2021/07/10 01:20:14;;;;;;;13.55;11.38;;;13.60;99.90;;;;;;5053876;28;20029;-64
2021/07/10 01:22:41;;;;;;;14.10;11.55;;;13.60;99.90;;;;;;5053873;28;20032;-64
2021/07/10 01:25:09;;;;;;;11.73;10.43;;;13.60;99.90;;;;;;5053693;28;20037;-64
2021/07/10 01:27:35;;;;;;;13.27;10.65;;;13.60;99.90;;;;;;5053330;28;20104;-64
2021/07/10 01:30:11;;;;;;;13.73;10.50;;;13.60;99.90;;;;;;5053649;28;20533;-64
2021/07/10 01:32:37;;;;;;;16.17;10.40;;;13.60;99.90;;;;;;5046426;28;20056;-64
2021/07/10 01:35:04;;;;;;;16.42;10.32;;;13.60;99.90;;;;;;5053466;28;20079;-64
2021/07/10 01:37:29;;;;;;;12.18;10.85;;;13.60;99.90;;;;;;5052836;28;20032;-64
2021/07/10 01:39:55;;;;;;;10.45;9.45;;;13.60;99.90;;;;;;5053047;28;20028;-64
2021/07/10 01:42:21;;;;;;;12.15;10.48;;;13.50;99.90;;;;;;5051392;28;20421;-64
2021/07/10 01:44:48;;;;;;;14.65;10.05;;;13.50;99.90;;;;;;5051766;28;20029;-64
2021/07/10 01:47:15;;;;;;;10.52;9.13;;;13.50;99.90;;;;;;5051189;28;20413;-65
2021/07/10 01:49:41;;;;;;;12.40;10.40;;;13.50;99.90;;;;;;5051762;28;20055;-64
2021/07/10 01:52:06;;;;;;;11.60;10.43;;;13.40;99.90;;;;;;5051536;28;20107;-64
2021/07/10 01:54:32;;;;;;;14.00;10.98;;;13.30;99.90;;;;;;5049787;28;20041;-64
2021/07/10 01:56:58;;;;;;;11.90;10.25;;;13.30;99.90;;;;;;5051598;28;20501;-64
2021/07/10 01:59:24;;;;;;;12.52;10.23;;;13.20;99.90;;;;;;5050827;28;20029;-64
2021/07/10 02:01:51;;;;;;;11.95;10.73;;;13.20;99.90;;;;;;5049646;28;20036;-64
2021/07/10 02:04:19;;;;;;;12.90;10.25;;;13.10;99.90;;;;;;5050632;28;20052;-64
2021/07/10 02:06:46;;;;;;;12.90;10.57;;;13.10;99.90;;;;;;5051513;28;20037;-64
2021/07/10 02:09:13;;;;;;;12.18;10.25;;;13.10;99.90;;;;;;5050818;28;20055;-64
2021/07/10 02:11:43;;;;;;;14.10;10.48;;;13.10;99.90;;;;;;5051151;28;20386;-64
2021/07/10 02:14:09;;;;;;;11.88;10.38;;;13.10;99.90;;;;;;5050952;28;20039;-64
2021/07/10 02:16:35;;;;;;;12.65;10.85;;;13.10;99.90;;;;;;5050685;28;20026;-64
2021/07/10 02:19:00;;;;;;;12.45;11.07;;;13.10;99.90;;;;;;5051154;28;20029;-64
2021/07/10 02:21:26;;;;;;;11.02;9.68;;;13.10;99.90;;;;;;5050310;28;20268;-65
2021/07/10 02:23:52;;;;;;;10.90;9.52;;;13.10;99.90;;;;;;5051964;28;20056;-64
2021/07/10 02:26:18;;;;;;;10.88;9.77;;;13.10;99.90;;;;;;5049259;28;20382;-65
2021/07/10 02:28:44;;;;;;;15.07;10.52;;;13.10;99.90;;;;;;5052256;28;20440;-64
2021/07/10 02:31:11;;;;;;;10.70;9.60;;;13.00;99.90;;;;;;5052143;28;20116;-65
2021/07/10 02:33:37;;;;;;;13.60;10.13;;;13.00;99.90;;;;;;5052349;28;20142;-64
2021/07/10 02:36:03;;;;;;;14.77;10.27;;;12.90;99.90;;;;;;5051058;28;20033;-64
2021/07/10 02:38:29;;;;;;;12.73;10.38;;;12.90;99.90;;;;;;5051520;28;20031;-64
2021/07/10 02:40:54;;;;;;;12.38;9.73;;;12.90;99.90;;;;;;5052167;28;20136;-64
2021/07/10 02:43:20;;;;;;;12.60;10.23;;;12.90;99.90;;;;;;5051183;28;20409;-64
2021/07/10 02:45:46;;;;;;;11.07;9.85;;;12.90;99.90;;;;;;5052332;28;20036;-64
2021/07/10 02:48:12;;;;;;;11.90;10.27;;;12.90;99.90;;;;;;5051241;28;20025;-65
2021/07/10 02:50:39;;;;;;;13.80;10.35;;;12.80;99.90;;;;;;5051739;28;20087;-65
2021/07/10 02:53:05;;;;;;;11.75;9.82;;;12.80;99.90;;;;;;5051948;28;20037;-64
2021/07/10 02:55:31;;;;;;;13.55;10.48;;;12.80;99.90;;;;;;5051146;28;20053;-64
2021/07/10 02:57:57;;;;;;;11.05;9.43;;;12.80;99.90;;;;;;5052001;28;20021;-65
2021/07/10 03:00:25;;;;;;;12.35;9.90;;;12.80;99.90;;;;;;5050916;28;20040;-65
2021/07/10 03:02:51;;;;;;;15.23;10.90;;;12.80;99.90;;;;;;5051325;28;20496;-65
2021/07/10 03:05:17;;;;;;;11.23;10.02;;;12.80;99.90;;;;;;5050601;28;20021;-65
2021/07/10 03:07:44;;;;;;;11.20;9.90;;;12.70;99.90;;;;;;5051903;28;20490;-65
2021/07/10 03:10:14;;;;;;;11.57;10.10;;;12.70;99.90;;;;;;5051205;28;20065;-65
2021/07/10 03:12:40;;;;;;;10.80;9.70;;;12.70;99.90;;;;;;5051737;28;20033;-65
2021/07/10 03:15:07;;;;;;;11.57;10.07;;;12.70;99.90;;;;;;5051261;28;20033;-65
2021/07/10 03:17:32;;;;;;;11.70;9.93;;;12.70;99.90;;;;;;5049600;28;20169;-65
2021/07/10 03:19:58;;;;;;;10.30;9.27;;;12.60;99.90;;;;;;5051645;28;20108;-64
2021/07/10 03:22:24;;;;;;;12.77;10.77;;;12.60;99.90;;;;;;5050820;28;20028;-65
2021/07/10 03:24:49;;;;;;;12.35;10.77;;;12.60;99.90;;;;;;5051636;28;20143;-65
2021/07/10 03:27:15;;;;;;;13.35;10.95;;;12.60;99.90;;;;;;5051246;28;20104;-65
2021/07/10 03:29:41;;;;;;;11.85;10.65;;;12.60;99.90;;;;;;5051194;28;20470;-64
2021/07/10 03:32:08;;;;;;;13.30;9.80;;;12.50;99.90;;;;;;5051539;28;20083;-65
2021/07/10 03:34:33;;;;;;;11.30;10.10;;;12.50;99.90;;;;;;5050546;28;20049;-65
2021/07/10 03:36:59;;;;;;;11.02;9.90;;;12.50;99.90;;;;;;5051428;28;20498;-65
2021/07/10 03:39:25;;;;;;;12.10;10.05;;;12.50;99.90;;;;;;5050597;28;20536;-65
2021/07/10 03:41:51;;;;;;;10.35;9.35;;;12.50;99.90;;;;;;5050950;28;20479;-65
2021/07/10 03:44:17;;;;;;;13.02;9.73;;;12.50;99.90;;;;;;5050615;28;20075;-65
2021/07/10 03:46:43;;;;;;;10.02;8.85;;;12.60;99.90;;;;;;5051613;28;20025;-65
2021/07/10 03:49:09;;;;;;;11.68;9.50;;;12.60;99.90;;;;;;5050466;28;20033;-65
2021/07/10 03:51:34;;;;;;;13.52;10.10;;;12.60;99.90;;;;;;5050651;28;20086;-65
2021/07/10 03:54:00;;;;;;;11.88;9.10;;;12.60;99.90;;;;;;5050931;28;20094;-64
2021/07/10 03:56:26;;;;;;;9.13;8.23;;;12.60;99.90;;;;;;5048756;28;20485;-65
2021/07/10 03:58:51;;;;;;;12.15;9.55;;;12.60;99.90;;;;;;5050828;28;20028;-65
2021/07/10 04:01:17;;;;;;;9.68;8.68;;;12.60;99.90;;;;;;5050188;28;20103;-65
2021/07/10 04:03:42;;;;;;;13.13;9.13;;;12.60;99.90;;;;;;5050621;28;20099;-65
2021/07/10 04:06:08;;;;;;;10.32;9.23;;;12.60;99.90;;;;;;5050585;28;20048;-65
2021/07/10 04:08:34;;;;;;;9.57;8.60;;;12.60;99.90;;;;;;5050007;28;20025;-65
2021/07/10 04:11:00;;;;;;;11.65;10.00;;;12.60;99.90;;;;;;5050407;28;20051;-65
2021/07/10 04:13:25;;;;;;;11.90;10.18;;;12.70;99.90;;;;;;5049956;28;20036;-65
2021/07/10 04:15:51;;;;;;;11.25;10.15;;;12.70;99.90;;;;;;5051122;28;20476;-65
2021/07/10 04:18:17;;;;;;;11.85;9.23;;;12.70;99.90;;;;;;5050347;28;20036;-65
2021/07/10 04:20:42;;;;;;;10.55;9.40;;;12.80;99.90;;;;;;5050705;28;20036;-65
2021/07/10 04:23:08;;;;;;;9.80;8.77;;;12.80;99.90;;;;;;5050831;28;20029;-65
2021/07/10 04:25:34;;;;;;;12.15;9.20;;;12.80;99.90;;;;;;5050005;28;20032;-65
2021/07/10 04:28:00;;;;;;;9.35;8.35;;;12.90;99.90;;;;;;5050632;28;20033;-65
2021/07/10 04:30:25;;;;;;;9.95;8.50;;;12.90;99.90;;;;;;5050814;28;20037;-65
2021/07/10 04:32:51;;;;;;;9.80;8.80;;;12.90;99.90;;;;;;5054549;28;20109;-65
2021/07/10 04:35:18;;;;;;;11.52;9.23;;;13.00;99.90;;;;;;5053609;28;20029;-65
2021/07/10 04:37:45;;;;;;;9.30;8.40;;;13.00;99.90;;;;;;5054677;28;20047;-66
2021/07/10 04:40:12;;;;;;;10.48;9.50;;;13.10;99.90;;;;;;5054674;28;20029;-66
2021/07/10 04:42:38;;;;;;;9.40;8.50;;;13.20;99.90;;;;;;5054361;28;20091;-66
2021/07/10 04:45:05;;;;;;;9.40;8.50;;;13.30;99.90;;;;;;5054386;28;20032;-66
2021/07/10 04:47:31;;;;;;;9.75;8.85;;;13.30;99.90;;;;;;5053526;28;20045;-66
2021/07/10 04:49:57;;;;;;;11.60;9.63;;;13.50;99.90;;;;;;5054284;28;20524;-66
2021/07/10 04:52:22;;;;;;;9.43;8.48;;;13.60;99.90;;;;;;5053290;28;20060;-66
2021/07/10 04:54:48;;;;;;;9.13;7.78;;;13.70;99.90;;;;;;5054047;28;20406;-66
2021/07/10 04:57:14;;;;;;;12.35;9.10;;;13.80;99.90;;;;;;5053920;28;20111;-66
2021/07/10 04:59:39;;;;;;;13.10;10.55;;;13.90;99.90;;;;;;5053831;28;20041;-66
2021/07/10 05:02:05;;;;;;;11.20;10.00;;;14.00;99.90;;;;;;5054341;28;20025;-66
2021/07/10 05:04:31;;;;;;;14.23;12.82;;;14.10;99.90;;;;;;5053131;28;20033;-66
2021/07/10 05:06:57;;;;;;;16.25;14.18;;;14.30;99.90;;;;;;5054194;28;20382;-66
2021/07/10 05:09:23;;;;;;;12.95;11.63;;;14.40;99.90;;;;;;5053284;28;20501;-66
2021/07/10 05:11:49;;;;;;;16.40;14.63;;;14.50;99.90;;;;;;5053480;28;20032;-66
2021/07/10 05:14:16;;;;;;;14.88;12.25;;;14.60;99.90;;;;;;5053204;28;20033;-65
2021/07/10 05:16:42;;;;;;;12.10;11.00;;;14.70;99.90;;;;;;5052082;28;20079;-64
2021/07/10 05:19:07;;;;;;;16.10;11.52;;;14.90;99.90;;;;;;5054007;28;20021;-64
2021/07/10 05:21:34;;;;;;;12.45;10.98;;;14.90;99.90;;;;;;5052988;28;20021;-64
2021/07/10 05:23:59;;;;;;;11.63;10.27;;;15.00;99.90;;;;;;5053479;28;20091;-64
2021/07/10 05:26:25;;;;;;;11.27;9.90;;;15.00;99.90;;;;;;5052859;28;20033;-64
2021/07/10 05:28:51;;;;;;;10.52;9.15;;;15.20;99.90;;;;;;5053384;28;20029;-65
2021/07/10 05:31:16;;;;;;;12.68;9.90;;;15.30;99.90;;;;;;5052818;28;20041;-65
2021/07/10 05:33:43;;;;;;;10.77;9.68;;;15.40;99.90;;;;;;5053415;28;20023;-65
2021/07/10 05:36:09;;;;;;;10.18;8.63;;;15.50;99.90;;;;;;5053848;28;20032;-65
2021/07/10 05:38:35;;;;;;;9.88;8.88;;;15.60;99.90;;;;;;5052210;28;20044;-68
2021/07/10 05:41:01;;;;;;;12.05;9.55;;;15.70;99.90;;;;;;5052572;28;20404;-65
2021/07/10 05:43:27;;;;;;;9.57;8.57;;;15.80;99.90;;;;;;5052645;28;20029;-65
2021/07/10 05:45:54;;;;;;;9.15;8.15;;;15.90;99.90;;;;;;5052998;28;20484;-66
2021/07/10 05:48:20;;;;;;;10.65;8.32;;;16.00;99.90;;;;;;5052277;28;20487;-66
2021/07/10 05:50:46;;;;;;;10.40;9.30;;;16.10;99.90;;;;;;5053462;28;20076;-66
2021/07/10 05:53:12;;;;;;;9.48;8.45;;;16.30;99.90;;;;;;5053028;28;20470;-66
2021/07/10 05:55:38;;;;;;;11.15;8.52;;;16.40;99.90;;;;;;5052179;28;20163;-65
2021/07/10 05:58:04;;;;;;;9.10;8.18;;;16.50;99.90;;;;;;5052914;28;20094;-66
2021/07/10 06:00:31;;;;;;;8.98;8.15;;;16.70;99.90;;;;;;5050479;28;20112;-65
2021/07/10 06:02:57;;;;;;;9.25;8.15;;;16.70;99.90;;;;;;5050741;28;20041;-65
2021/07/10 06:05:23;;;;;;;11.30;8.35;;;16.80;99.90;;;;;;5050251;28;20033;-66
2021/07/10 06:07:49;;;;;;;10.50;8.93;;;17.00;99.90;;;;;;5051033;28;20044;-68
2021/07/10 06:10:14;;;;;;;11.63;8.43;;;17.10;99.90;;;;;;5050714;28;20033;-68
2021/07/10 06:12:42;;;;;;;10.52;9.00;;;17.20;99.90;;;;;;5049433;28;20159;-68
2021/07/10 06:15:10;;;;;;;8.68;7.35;;;17.30;99.90;;;;;;5050966;28;20102;-69
2021/07/10 06:17:35;;;;;;;10.40;8.27;;;17.30;99.90;;;;;;5050216;28;20028;-67
2021/07/10 06:20:04;;;;;;;12.57;8.15;;;17.30;99.90;;;;;;5051059;28;20379;-67
2021/07/10 06:22:30;;;;;;;7.45;6.65;;;17.30;99.90;;;;;;5049753;28;20033;-67
2021/07/10 06:24:55;;;;;;;8.50;7.55;;;17.30;99.90;;;;;;5051415;28;20098;-66
2021/07/10 06:27:21;;;;;;;8.80;7.93;;;17.40;99.90;;;;;;5050037;28;20021;-66
2021/07/10 06:29:47;;;;;;;8.95;6.30;;;17.60;99.90;;;;;;5050434;28;20033;-65
2021/07/10 06:32:13;;;;;;;9.82;6.50;;;17.70;99.90;;;;;;5050954;28;20029;-65
2021/07/10 06:34:39;;;;;;;10.15;6.57;;;17.80;99.90;;;;;;5048972;28;20051;-66
2021/07/10 06:37:05;;;;;;;10.15;7.30;;;17.90;99.90;;;;;;5051101;28;20394;-65
2021/07/10 06:39:31;;;;;;;7.47;6.68;;;18.00;99.90;;;;;;5049809;28;20029;-66
2021/07/10 06:41:57;;;;;;;10.27;6.97;;;18.20;99.90;;;;;;5044801;28;20039;-66
2021/07/10 06:44:23;;;;;;;8.15;6.15;;;18.30;99.90;;;;;;5050152;28;20368;-65
2021/07/10 06:46:49;;;;;;;7.82;6.55;;;18.40;99.90;;;;;;5051562;28;20025;-65
2021/07/10 06:49:14;;;;;;;8.43;5.40;;;18.50;99.90;;;;;;5050558;28;20029;-65
2021/07/10 06:51:42;;;;;;;6.78;6.05;;;18.50;99.90;;;;;;5049884;28;20025;-65
2021/07/10 06:54:08;;;;;;;7.65;5.68;;;18.60;99.90;;;;;;5049316;28;20069;-65
2021/07/10 06:56:34;;;;;;;10.95;6.95;;;18.80;99.90;;;;;;5049623;28;20073;-65
2021/07/10 06:58:59;;;;;;;8.43;5.80;;;19.00;99.90;;;;;;5050341;28;20489;-65
2021/07/10 07:01:27;;;;;;;7.28;5.22;;;19.10;99.90;;;;;;5049996;28;20146;-65
2021/07/10 07:03:53;;;;;;;5.72;4.97;;;19.20;99.90;;;;;;5049374;28;20040;-65
2021/07/10 07:06:19;;;;;;;4.60;4.20;;;19.30;99.90;;;;;;5049123;28;20471;-65
2021/07/10 07:08:45;;;;;;;4.88;4.32;;;19.40;99.90;;;;;;5050551;28;20025;-65
2021/07/10 07:11:11;;;;;;;6.20;4.80;;;19.40;99.90;;;;;;5050099;28;20037;-65
2021/07/10 07:13:37;;;;;;;7.45;3.80;;;19.60;99.90;;;;;;5049187;28;20043;-65
2021/07/10 07:16:03;;;;;;;5.60;4.18;;;19.70;99.90;;;;;;5048981;28;20040;-65
2021/07/10 07:18:29;;;;;;;4.68;4.05;;;19.80;99.90;;;;;;5049298;28;20036;-65
2021/07/10 07:20:54;;;;;;;5.20;3.85;;;19.90;99.90;;;;;;5050418;28;20040;-65
2021/07/10 07:23:20;;;;;;;4.50;3.83;;;20.00;98.90;;;;;;5049397;28;20033;-65
2021/07/10 07:25:46;;;;;;;4.43;4.05;;;20.10;98.90;;;;;;5049752;28;20020;-65
2021/07/10 07:28:12;;;;;;;5.15;4.22;;;20.20;97.80;;;;;;5049061;28;20032;-65
2021/07/10 07:30:39;;;;;;;4.53;4.13;;;20.40;97.10;;;;;;5049510;28;20037;-65
2021/07/10 07:33:04;;;;;;;6.72;4.70;;;20.50;96.70;;;;;;5049783;28;20037;-65
2021/07/10 07:35:31;;;;;;;4.55;4.15;;;20.70;96.20;;;;;;5049568;28;20466;-64
2021/07/10 07:37:57;;;;;;;7.15;4.80;;;20.80;95.80;;;;;;5049934;28;20037;-65
2021/07/10 07:40:23;;;;;;;5.15;4.40;;;20.90;94.50;;;;;;5048140;28;20114;-65
2021/07/10 07:42:49;;;;;;;5.32;4.50;;;20.90;95.30;;;;;;5049692;28;20032;-65
2021/07/10 07:45:17;;;;;;;6.28;4.50;;;21.00;94.90;;;;;;5049757;28;20025;-66
2021/07/10 07:47:43;;;;;;;5.20;4.68;;;21.10;94.60;;;;;;5049864;28;20031;-65
2021/07/10 07:50:10;;;;;;;4.72;4.20;;;21.20;94.30;;;;;;5049527;28;20041;-64
2021/07/10 07:52:37;;;;;;;5.85;4.45;;;21.30;94.40;;;;;;5048742;28;20497;-64
2021/07/10 07:55:04;;;;;;;6.15;4.75;;;21.30;94.30;;;;;;5049581;28;20560;-64
2021/07/10 07:57:30;;;;;;;6.47;3.70;;;21.40;92.90;;;;;;5048375;28;20429;-65
2021/07/10 07:59:55;;;;;;;6.85;4.47;;;21.40;93.10;;;;;;5049780;28;20061;-65
2021/07/10 08:02:23;;;;;;;5.70;4.68;;;21.40;91.50;;;;;;5048489;28;20111;-65
2021/07/10 08:04:49;;;;;;;5.47;4.88;;;21.50;92.20;;;;;;5052284;28;20078;-65
2021/07/10 08:07:15;;;;;;;5.28;4.15;;;21.60;92.70;;;;;;5053145;28;20044;-66
2021/07/10 08:09:40;;;;;;;4.32;3.92;;;21.80;92.50;;;;;;5053402;28;20037;-65
2021/07/10 08:12:09;;;;;;;5.22;4.40;;;21.80;90.70;;;;;;5052926;28;20738;-65
2021/07/10 08:14:34;;;;;;;4.65;4.20;;;22.00;89.90;;;;;;5053030;28;20104;-65
2021/07/10 08:17:00;;;;;;;4.45;4.05;;;22.10;90.10;;;;;;5053728;28;20108;-65
2021/07/10 08:19:26;;;;;;;7.65;4.45;;;22.20;88.10;;;;;;5052992;28;20108;-65
2021/07/10 08:21:52;;;;;;;5.82;4.43;;;22.30;87.30;;;;;;5054766;28;20028;-65
2021/07/10 08:24:17;;;;;;;4.13;3.75;;;22.40;86.60;;;;;;5054148;28;20036;-66
2021/07/10 08:26:43;;;;;;;5.43;4.35;;;22.30;86.40;;;;;;5053339;28;20104;-65
2021/07/10 08:29:10;;;;;;;4.75;4.07;;;22.30;84.60;;;;;;5053994;28;20096;-65
2021/07/10 08:31:36;;;;;;;7.85;3.95;;;22.20;83.10;;;;;;5053873;28;20032;-65
2021/07/10 08:34:03;;;;;;;5.22;4.45;;;22.20;84.30;;;;;;5053874;28;20374;-65
2021/07/10 08:36:29;;;;;;;4.43;3.97;;;22.30;83.00;;;;;;5053183;28;20040;-65
2021/07/10 08:38:54;;;;;;;5.45;4.38;;;22.50;82.70;;;;;;5040445;28;20021;-65
2021/07/10 08:41:22;;;;;;;6.00;3.88;;;22.60;82.30;;;;;;5053597;28;20151;-65
2021/07/10 08:43:48;;;;;;;4.30;3.90;;;22.80;79.80;;;;;;5054494;28;20032;-65
2021/07/10 08:46:16;;;;;;;4.85;3.70;;;22.70;79.90;;;;;;5054198;28;20119;-65
2021/07/10 08:48:42;;;;;;;3.50;3.20;;;22.90;75.80;;;;;;5053401;28;20029;-64
2021/07/10 08:51:10;;;;;;;5.60;3.70;;;22.90;74.80;;;;;;5054138;28;20536;-65
2021/07/10 08:53:35;;;;;;;7.35;3.78;;;23.00;73.10;;;;;;5053598;28;20044;-66
2021/07/10 08:56:02;;;;;;;4.03;3.25;;;23.00;72.60;;;;;;5053935;28;20037;-65
2021/07/10 08:58:27;;;;;;;2.78;2.58;;;23.00;72.70;;;;;;5052861;28;20060;-65
2021/07/10 09:00:53;;;;;;;3.08;2.67;;;22.90;71.20;;;;;;5053705;28;20052;-65
2021/07/10 09:03:19;;;;;;;5.82;3.17;;;23.00;71.30;;;;;;5052904;28;20056;-66
2021/07/10 09:05:46;;;;;;;5.82;3.20;;;23.10;70.30;;;;;;5054378;28;20032;-65
2021/07/10 09:08:25;;;;;;;4.18;3.00;;;23.20;69.50;;;;;;5053769;28;20053;-65
2021/07/10 09:10:57;;;;;;;2.92;2.72;;;23.30;68.50;;;;;;5046983;28;20524;-65
2021/07/10 09:13:36;;;;;;;3.17;2.83;;;23.40;67.30;;;;;;5046147;28;20029;-65
2021/07/10 09:16:06;;;;;;;3.35;2.70;;;23.40;67.10;;;;;;5053163;28;20040;-65
2021/07/10 09:18:39;;;;;;;3.95;2.65;;;23.50;65.70;;;;;;5053039;28;20052;-65
2021/07/10 09:21:05;;;;;;;4.72;2.50;;;23.60;65.90;;;;;;5052698;28;20471;-65
2021/07/10 09:23:40;;;;;;;2.70;2.50;;;23.60;65.10;;;;;;5053408;28;20079;-66
2021/07/10 09:26:23;;;;;;;10.60;3.53;;;23.60;65.50;;;;;;5045766;28;20131;-66
2021/07/10 09:28:57;;;;;;;2.88;2.40;;;23.70;65.50;;;;;;5046410;28;20112;-65
2021/07/10 09:31:30;;;;;;;32.45;5.32;;;23.70;64.50;;;;;;5053297;28;20059;-65
2021/07/10 09:34:00;;;;;;;16.45;3.38;;;23.80;63.40;;;;;;5053626;28;20044;-65
2021/07/10 09:36:26;;;;;;;;;;;23.70;63.70;;;;;;5055260;28;20029;-65
2021/07/10 09:38:53;;;;;;;3.10;2.22;;;23.80;63.60;;;;;;5052451;28;20388;-65
2021/07/10 09:41:39;;;;;;;4.22;2.80;;;24.00;63.00;;;;;;5052880;28;20040;-66
2021/07/10 09:44:08;;;;;;;3.70;2.53;;;24.20;62.40;;;;;;5052827;28;20044;-65
2021/07/10 09:46:33;;;;;;;2.45;2.25;;;24.40;62.10;;;;;;5052653;28;20025;-65
2021/07/10 09:49:36;;;;;;;3.30;2.17;;;24.30;62.70;;;;;;5053252;28;20116;-65
2021/07/10 09:52:15;;;;;;;2.28;2.08;;;24.40;61.40;;;;;;5045567;28;20037;-65
2021/07/10 09:54:46;;;;;;;5.82;2.22;;;24.40;60.90;;;;;;5051623;28;20048;-65
2021/07/10 09:57:36;;;;;;;3.90;1.92;;;24.40;60.50;;;;;;5053350;28;20025;-65
2021/07/10 10:00:12;;;;;;;3.50;2.20;;;24.50;60.00;;;;;;5052567;28;20029;-66
2021/07/10 10:02:52;;;;;;;5.30;2.20;;;24.60;60.50;;;;;;5045316;28;20028;-65
2021/07/10 10:05:20;;;;;;;1.90;1.73;;;24.70;57.60;;;;;;5053078;28;20057;-66
2021/07/10 10:07:50;;;;;;;2.78;1.70;;;24.70;57.50;;;;;;5050059;28;20100;-66
2021/07/10 10:10:26;;;;;;;1.85;1.75;;;24.80;59.00;;;;;;5052637;28;20178;-66
2021/07/10 10:13:09;;;;;;;3.42;1.80;;;24.90;59.00;;;;;;5053130;28;20032;-66
2021/07/10 10:15:52;;;;;;;2.25;2.15;;;25.10;58.20;;;;;;5047628;28;20052;-66
2021/07/10 10:18:22;;;;;;;4.03;2.00;;;25.30;58.40;;;;;;5048876;28;20025;-66
2021/07/10 10:20:49;;;;;;;4.85;2.40;;;25.50;59.40;;;;;;5045569;28;20032;-65
2021/07/10 10:23:18;;;;;;;2.92;2.17;;;25.60;57.90;;;;;;5052195;28;20428;-66
2021/07/10 10:25:44;;;;;;;3.10;2.17;;;25.60;58.50;;;;;;5050400;28;20104;-66
2021/07/10 10:28:18;;;;;;;1.58;1.48;;;25.80;57.10;;;;;;5051091;28;20040;-66
2021/07/10 10:30:45;;;;;;;2.20;2.00;;;25.90;56.40;;;;;;5059273;28;20033;-66
2021/07/10 10:33:11;;;;;;;2.15;1.80;;;26.10;56.80;;;;;;5053505;28;20108;-67
2021/07/10 10:35:37;;;;;;;2.10;1.80;;;26.30;56.40;;;;;;5052048;28;20029;-66
2021/07/10 10:38:03;;;;;;;2.95;1.92;;;26.30;56.00;;;;;;5052385;28;20036;-66
2021/07/10 10:40:29;;;;;;;2.55;1.90;;;26.20;56.30;;;;;;5051488;28;20021;-66
2021/07/10 10:42:57;;;;;;;1.88;1.77;;;26.30;54.90;;;;;;5047738;28;21388;-66
2021/07/10 10:45:32;;;;;;;1.88;1.75;;;26.30;54.50;;;;;;5051221;28;20378;-67
2021/07/10 10:47:58;;;;;;;2.30;1.90;;;26.30;54.60;;;;;;5052034;28;20454;-66
2021/07/10 10:50:34;;;;;;;2.35;2.05;;;26.50;55.70;;;;;;5051331;28;20127;-66
2021/07/10 10:53:00;;;;;;;2.13;1.70;;;26.50;55.10;;;;;;5052507;28;20029;-66
2021/07/10 10:55:29;;;;;;;2.60;1.95;;;26.60;54.40;;;;;;5051330;28;20045;-66
2021/07/10 10:57:56;;;;;;;2.15;1.52;;;26.50;54.40;;;;;;5052022;28;20040;-66
2021/07/10 11:00:29;;;;;;;2.00;1.85;;;26.40;54.40;;;;;;5051716;28;20025;-66
2021/07/10 11:02:57;;;;;;;3.45;1.80;;;26.50;53.70;;;;;;5051430;28;20415;-66
2021/07/10 11:05:31;;;;;;;2.15;1.67;;;26.50;53.70;;;;;;5051659;28;20462;-67
2021/07/10 11:08:19;;;;;;;1.70;1.60;;;26.70;52.20;;;;;;5051572;28;20462;-66
2021/07/10 11:10:54;;;;;;;2.10;1.92;;;26.80;53.30;;;;;;5050844;28;20192;-66
2021/07/10 11:13:37;;;;;;;1.83;1.73;;;27.00;52.60;;;;;;5046896;28;20033;-66
2021/07/10 11:16:06;;;;;;;2.03;1.83;;;27.10;51.70;;;;;;5051564;28;20032;-66
2021/07/10 11:18:58;;;;;;;2.17;1.63;;;27.20;53.10;;;;;;5051035;28;20029;-66
2021/07/10 11:21:48;;;;;;;5.05;2.08;;;27.30;51.80;;;;;;5044116;28;20037;-67
2021/07/10 11:24:20;;;;;;;2.45;2.25;;;27.30;51.50;;;;;;5051683;28;20024;-66
2021/07/10 11:26:54;;;;;;;2.58;2.03;;;27.40;51.30;;;;;;5050759;28;20372;-66
2021/07/10 11:29:27;;;;;;;3.15;2.00;;;27.30;52.70;;;;;;5051183;28;20029;-66
2021/07/10 11:32:11;;;;;;;2.80;1.77;;;;;;;;;;5043489;28;20116;-66
2021/07/10 11:34:41;;;;;;;3.38;1.90;;;27.70;51.40;;;;;;5050620;28;20501;-66
2021/07/10 11:37:17;;;;;;;2.13;2.03;;;28.00;51.80;;;;;;5051714;28;20457;-66
2021/07/10 11:39:53;;;;;;;6.25;2.50;;;28.00;51.30;;;;;;5049998;28;20028;-66
2021/07/10 11:42:20;;;;;;;4.15;2.00;;;28.00;50.70;;;;;;5051281;28;20052;-66
2021/07/10 11:44:48;;;;;;;5.25;2.25;;;28.10;50.50;;;;;;5050461;28;20183;-66
2021/07/10 11:47:32;;;;;;;5.35;2.67;;;28.20;50.50;;;;;;5051219;28;20032;-66
2021/07/10 11:49:59;;;;;;;6.20;2.65;;;28.40;50.80;;;;;;5043479;28;20064;-66
2021/07/10 11:52:25;;;;;;;3.20;2.20;;;28.40;50.50;;;;;;5050635;28;20074;-67
2021/07/10 11:54:56;;;;;;;3.55;2.13;;;28.30;50.80;;;;;;5050242;28;20041;-66
2021/07/10 11:57:25;;;;;;;3.10;2.05;;;28.30;51.30;;;;;;5042872;28;20043;-65
2021/07/10 11:59:52;;;;;;;1.95;1.80;;;28.50;50.70;;;;;;5050867;28;20048;-66
2021/07/10 12:02:21;;;;;;;6.40;2.50;;;28.70;50.50;;;;;;5050078;28;20029;-66
2021/07/10 12:05:09;;;;;;;5.40;2.23;;;29.10;50.00;;;;;;5050539;28;20113;-65
2021/07/10 12:07:40;;;;;;;2.90;2.10;;;29.10;49.60;;;;;;5048470;28;20036;-66
2021/07/10 12:10:36;;;;;;;5.95;3.45;;;28.90;50.40;;;;;;5047261;28;20032;-66
2021/07/10 12:13:05;;;;;;;2.70;2.42;;;29.10;50.00;;;;;;5045470;28;20033;-65
2021/07/10 12:15:39;;;;;;;3.35;2.58;;;29.00;49.80;;;;;;5049790;28;20469;-65
2021/07/10 12:18:07;;;;;;;2.67;2.35;;;28.80;51.10;;;;;;5050706;28;20067;-65
2021/07/10 12:20:36;;;;;;;2.42;2.22;;;28.50;51.20;;;;;;5050333;28;20033;-66
2021/07/10 12:23:14;;;;;;;7.13;2.47;;;28.50;52.00;;;;;;5051063;28;20120;-64
2021/07/10 12:25:57;;;;;;;2.22;2.10;;;28.80;50.80;;;;;;5046983;28;20040;-64
2021/07/10 12:28:54;;;;;;;2.50;2.30;;;29.40;50.20;;;;;;5050827;28;20398;-66
2021/07/10 12:31:35;;;;;;;2.40;2.20;;;29.80;49.70;;;;;;5040856;28;20045;-64
2021/07/10 12:34:05;;;;;;;3.85;2.33;;;30.20;48.50;;;;;;5058884;28;20029;-64
2021/07/10 12:36:37;;;;;;;;;;;30.50;48.80;;;;;;5047031;28;20359;-65
2021/07/10 12:39:06;;;;;;;3.67;2.28;;;30.80;48.90;;;;;;5050046;28;19909;-65
2021/07/10 12:41:34;;;;;;;2.28;2.08;;;31.20;48.50;;;;;;5049700;28;20037;-64
2021/07/10 12:44:19;;;;;;;2.38;2.15;;;31.40;47.70;;;;;;5051163;28;20021;-64
2021/07/10 12:46:57;;;;;;;2.53;1.65;;;31.90;47.20;;;;;;5049406;28;20078;-64